KVHN/VHN METAR and TAF weather

Enter ICAO airport designator
Station Type Date Time Source
KVHN METAR 2024/04/17 18:35 UTC NOAA

KVHN 171835Z AUTO 26008KT 230V300 10SM CLR 28/M13 A3009 RMK AO2 T02751127


Station Type Date Time Source
KVHN Decoded METAR 2024/04/17 18:35 UTC NOAA

Station name not available
Apr 17, 2024 - 02:35 PM EDT / 2024.04.17 1835 UTC
Wind: from the W (260 degrees) at 9 MPH (8 KT) (direction variable):0
Visibility: 10 mile(s):0
Sky conditions: clear
Temperature: 81.5 F (27.5 C)
Dew Point: 9.1 F (-12.7 C)
Relative Humidity: 6%
Pressure (altimeter): 30.09 in. Hg (1018 hPa)
ob: KVHN 171835Z AUTO 26008KT 230V300 10SM CLR 28/M13 A3009 RMK AO2 T02751127
cycle: 18

Station Type Date Time Source
KVHN TAF UTC NOAA

Error!

Example: see airport list